createdAt,value
2019-05-09T00:02:10.963Z,2.87
2019-05-09T00:04:44.023Z,2.52
2019-05-09T00:07:14.109Z,2.10
2019-05-09T00:09:44.218Z,2.58
2019-05-09T00:17:14.104Z,1.95
2019-05-09T00:19:44.457Z,2.15
2019-05-09T00:24:44.920Z,1.92
2019-05-09T00:27:14.911Z,2.02
2019-05-09T00:29:47.417Z,2.77
2019-05-09T00:32:29.399Z,2.45
2019-05-09T00:35:27.163Z,2.35
2019-05-09T00:38:13.255Z,1.82
2019-05-09T00:40:54.948Z,2.27
2019-05-09T00:43:14.808Z,2.87
2019-05-09T00:48:53.412Z,3.03
2019-05-09T00:51:23.419Z,2.30
2019-05-09T00:53:53.797Z,2.92
2019-05-09T00:56:23.984Z,2.35
2019-05-09T00:58:53.784Z,2.62
2019-05-09T01:01:24.009Z,2.27
2019-05-09T01:03:56.095Z,2.30
2019-05-09T01:06:25.673Z,2.77
2019-05-09T01:08:55.430Z,2.92
2019-05-09T01:11:24.813Z,2.75
2019-05-09T01:13:55.071Z,2.50
2019-05-09T01:16:25.009Z,2.12
2019-05-09T01:18:54.727Z,3.42
2019-05-09T01:21:24.560Z,2.35
2019-05-09T01:23:54.387Z,3.12
2019-05-09T01:26:24.310Z,2.60
2019-05-09T01:28:54.323Z,2.87
2019-05-09T01:31:24.660Z,2.72
2019-05-09T01:34:16.525Z,3.50
2019-05-09T01:37:06.244Z,2.55
2019-05-09T01:39:38.230Z,2.50
2019-05-09T01:42:07.824Z,2.75
2019-05-09T01:44:39.943Z,2.17
2019-05-09T01:47:09.361Z,3.30
2019-05-09T01:49:38.809Z,4.67
2019-05-09T01:52:08.012Z,2.80
2019-05-09T01:54:38.760Z,3.17
2019-05-09T01:57:07.973Z,2.92
2019-05-09T01:59:37.240Z,2.70
2019-05-09T02:02:08.750Z,2.97
2019-05-09T02:04:38.644Z,3.42
2019-05-09T02:07:08.078Z,3.37
2019-05-09T02:09:37.531Z,2.67
2019-05-09T02:12:06.929Z,2.85
2019-05-09T02:14:43.777Z,3.17
2019-05-09T02:17:39.506Z,2.95
2019-05-09T02:20:09.123Z,3.33
2019-05-09T02:22:43.523Z,2.77
2019-05-09T02:25:14.010Z,3.05
2019-05-09T02:27:43.839Z,2.75
2019-05-09T02:30:15.336Z,3.62
2019-05-09T02:32:45.465Z,3.55
2019-05-09T02:35:15.299Z,3.60
2019-05-09T02:37:45.073Z,3.95
2019-05-09T02:40:18.526Z,3.55
2019-05-09T02:42:49.028Z,3.83
2019-05-09T02:45:19.426Z,2.90
2019-05-09T02:47:49.414Z,2.92
2019-05-09T02:50:19.739Z,2.85
2019-05-09T02:52:49.349Z,3.87
2019-05-09T02:55:18.944Z,3.42
2019-05-09T02:57:50.245Z,2.95
2019-05-09T03:00:39.704Z,3.90
2019-05-09T03:03:14.399Z,4.15
2019-05-09T03:05:43.929Z,3.33
2019-05-09T03:08:13.625Z,3.42
2019-05-09T03:10:44.599Z,3.37
2019-05-09T03:13:14.674Z,3.87
2019-05-09T03:15:45.639Z,3.27
2019-05-09T03:18:18.128Z,3.40
2019-05-09T03:20:53.685Z,3.92
2019-05-09T03:23:24.357Z,4.03
2019-05-09T03:25:54.490Z,4.12
2019-05-09T03:28:41.786Z,2.83
2019-05-09T03:31:12.571Z,3.95
2019-05-09T03:33:43.525Z,3.10
2019-05-09T03:36:18.000Z,4.22
2019-05-09T03:38:47.687Z,3.83
2019-05-09T03:41:18.381Z,3.33
2019-05-09T03:43:48.452Z,4.30
2019-05-09T03:46:38.265Z,3.27
2019-05-09T03:49:07.902Z,4.50
2019-05-09T03:51:38.075Z,3.62
2019-05-09T03:56:42.848Z,3.52
2019-05-09T03:59:12.443Z,2.77
2019-05-09T04:01:42.181Z,3.60
2019-05-09T04:04:11.594Z,2.20
2019-05-09T04:06:41.384Z,3.27
2019-05-09T04:09:11.163Z,3.35
2019-05-09T04:11:40.779Z,2.65
2019-05-09T04:14:14.476Z,3.12
2019-05-09T04:16:43.848Z,3.60
2019-05-09T04:19:12.991Z,3.73
2019-05-09T04:21:42.754Z,4.28
2019-05-09T04:24:12.435Z,4.15
2019-05-09T04:26:57.590Z,3.12
2019-05-09T04:29:28.616Z,2.60
2019-05-09T04:31:58.408Z,3.12
2019-05-09T04:34:28.171Z,4.03
2019-05-09T04:36:58.662Z,2.87
2019-05-09T04:39:28.468Z,3.42
2019-05-09T04:42:03.020Z,4.53
2019-05-09T04:44:41.739Z,3.65
2019-05-09T04:47:11.246Z,4.53
2019-05-09T04:49:44.987Z,3.63
2019-05-09T04:52:12.300Z,3.72
2019-05-09T04:54:41.881Z,3.85
2019-05-09T04:57:11.715Z,3.02
2019-05-09T04:59:41.237Z,4.05
2019-05-09T05:02:23.983Z,4.35
2019-05-09T05:04:53.549Z,3.65
2019-05-09T05:07:23.254Z,3.55
2019-05-09T05:09:52.999Z,4.97
2019-05-09T05:12:22.299Z,4.45
2019-05-09T05:14:51.700Z,5.03
2019-05-09T05:17:21.475Z,4.10
2019-05-09T05:19:51.655Z,4.83
2019-05-09T05:25:02.667Z,4.83
2019-05-09T05:27:32.336Z,4.85
2019-05-09T05:30:01.703Z,4.62
2019-05-09T05:32:52.850Z,4.03
2019-05-09T05:35:50.569Z,4.78
2019-05-09T05:38:20.257Z,4.12
2019-05-09T05:40:49.932Z,4.58
2019-05-09T05:43:19.538Z,5.67
2019-05-09T05:45:58.629Z,3.90
2019-05-09T05:48:29.900Z,4.37
2019-05-09T05:50:59.372Z,5.15
2019-05-09T05:53:28.628Z,3.77
2019-05-09T05:55:58.171Z,4.40
2019-05-09T05:58:28.155Z,5.22
2019-05-09T06:03:28.287Z,4.33
2019-05-09T06:08:27.667Z,4.40
2019-05-09T06:10:57.613Z,4.40
2019-05-09T06:13:27.530Z,5.22
2019-05-09T06:15:58.632Z,5.22
2019-05-09T06:18:28.358Z,5.17
2019-05-09T06:20:58.442Z,4.40
2019-05-09T06:23:28.313Z,3.62
2019-05-09T06:25:58.754Z,3.25
2019-05-09T06:28:28.761Z,3.87
2019-05-09T06:30:58.612Z,3.52
2019-05-09T06:33:28.675Z,3.90
2019-05-09T06:35:58.942Z,3.40
2019-05-09T06:38:28.480Z,4.12
2019-05-09T06:40:58.232Z,2.97
2019-05-09T06:43:29.794Z,4.05
2019-05-09T06:46:08.300Z,4.12
2019-05-09T06:48:38.010Z,2.67
2019-05-09T06:51:07.570Z,3.67
2019-05-09T06:53:38.025Z,3.87
2019-05-09T06:56:07.660Z,3.27
2019-05-09T06:58:38.309Z,3.87
2019-05-09T07:01:19.769Z,3.85
2019-05-09T07:03:51.293Z,3.40
2019-05-09T07:06:33.938Z,3.98
2019-05-09T07:09:12.418Z,4.35
2019-05-09T07:11:41.955Z,2.35
2019-05-09T07:14:32.364Z,3.60
2019-05-09T07:16:59.001Z,3.15
2019-05-09T07:19:28.330Z,3.12
2019-05-09T07:22:20.053Z,2.67
2019-05-09T07:25:20.909Z,2.27
2019-05-09T07:27:50.466Z,3.27
2019-05-09T07:30:37.735Z,3.58
2019-05-09T07:33:35.178Z,4.85
2019-05-09T07:36:08.392Z,4.90
2019-05-09T07:38:38.456Z,4.90
2019-05-09T07:41:08.865Z,5.17
2019-05-09T07:43:41.672Z,3.00
2019-05-09T07:46:22.362Z,3.75
2019-05-09T07:48:54.341Z,3.22
2019-05-09T07:51:23.976Z,2.67
2019-05-09T07:53:58.688Z,3.25
2019-05-09T07:56:28.503Z,3.70
2019-05-09T07:58:59.130Z,2.80
2019-05-09T08:01:28.687Z,3.62
2019-05-09T08:03:59.183Z,3.30
2019-05-09T08:06:28.983Z,3.17
2019-05-09T08:08:58.569Z,4.10
2019-05-09T08:11:28.698Z,3.15
2019-05-09T08:13:59.087Z,3.75
2019-05-09T08:16:28.634Z,3.27
2019-05-09T08:18:58.268Z,4.47
2019-05-09T08:21:27.929Z,3.95
2019-05-09T08:23:58.083Z,3.22
2019-05-09T08:26:29.986Z,3.47
2019-05-09T08:28:59.034Z,4.45
2019-05-09T08:31:28.444Z,4.45
2019-05-09T08:33:59.345Z,3.20
2019-05-09T08:36:29.248Z,2.90
2019-05-09T08:38:59.164Z,2.45
2019-05-09T08:41:29.462Z,2.45
2019-05-09T08:43:59.372Z,2.98
2019-05-09T08:46:29.134Z,1.95
2019-05-09T08:48:58.849Z,2.62
2019-05-09T08:51:50.733Z,2.37
2019-05-09T08:54:28.193Z,1.70
2019-05-09T08:56:58.959Z,2.47
2019-05-09T08:59:28.439Z,3.22
2019-05-09T09:02:14.810Z,2.52
2019-05-09T09:04:32.291Z,2.55
2019-05-09T09:07:01.903Z,3.00
2019-05-09T09:09:31.598Z,2.37
2019-05-09T09:12:01.032Z,1.67
2019-05-09T09:14:30.589Z,2.65
2019-05-09T09:17:02.837Z,2.83
2019-05-09T09:19:32.655Z,2.65
2019-05-09T09:22:02.285Z,2.80
2019-05-09T09:24:32.111Z,2.83
2019-05-09T09:27:01.792Z,2.42
2019-05-09T09:29:31.446Z,2.70
2019-05-09T09:32:01.235Z,3.45
2019-05-09T09:34:30.989Z,2.95
2019-05-09T09:37:03.778Z,2.45
2019-05-09T09:39:32.165Z,3.22
2019-05-09T09:42:01.961Z,3.50
2019-05-09T09:44:31.616Z,2.90
2019-05-09T09:47:01.194Z,3.30
2019-05-09T09:49:30.924Z,2.70
2019-05-09T09:52:00.821Z,3.17
2019-05-09T09:54:30.421Z,3.87
2019-05-09T09:56:59.938Z,2.98
2019-05-09T09:59:43.274Z,2.85
2019-05-09T10:02:13.476Z,3.50
2019-05-09T10:04:43.179Z,3.47
2019-05-09T10:07:12.874Z,2.75
2019-05-09T10:09:42.416Z,4.50
2019-05-09T10:12:12.119Z,3.45
2019-05-09T10:14:45.633Z,3.08
2019-05-09T10:17:33.195Z,2.72
2019-05-09T10:20:29.126Z,2.60
2019-05-09T10:23:10.110Z,2.52
2019-05-09T10:25:30.124Z,2.98
2019-05-09T10:27:59.498Z,3.02
2019-05-09T10:30:33.875Z,3.35
2019-05-09T10:33:03.191Z,2.75
2019-05-09T10:35:32.767Z,3.10
2019-05-09T10:38:02.327Z,2.52
2019-05-09T10:40:31.620Z,3.15
2019-05-09T10:43:34.465Z,3.85
2019-05-09T10:46:15.315Z,2.12
2019-05-09T10:48:44.255Z,2.12
2019-05-09T10:51:13.814Z,2.27
2019-05-09T10:53:43.291Z,2.30
2019-05-09T10:56:13.046Z,1.98
2019-05-09T10:58:45.284Z,2.77
2019-05-09T11:01:14.731Z,2.12
2019-05-09T11:03:44.242Z,1.98
2019-05-09T11:06:13.768Z,2.17
2019-05-09T11:08:43.063Z,2.12
2019-05-09T11:11:12.496Z,2.33
2019-05-09T11:13:42.149Z,1.95
2019-05-09T11:16:13.051Z,1.70
2019-05-09T11:18:42.474Z,1.62
2019-05-09T11:21:11.960Z,2.00
2019-05-09T11:23:41.619Z,2.40
2019-05-09T11:26:11.257Z,2.15
2019-05-09T11:28:40.673Z,1.85
2019-05-09T11:31:10.187Z,1.52
2019-05-09T11:33:39.681Z,2.37
2019-05-09T11:36:09.907Z,2.55
2019-05-09T11:38:43.665Z,2.90
2019-05-09T11:41:10.397Z,2.47
2019-05-09T11:43:39.662Z,2.75
2019-05-09T11:46:10.443Z,3.03
2019-05-09T11:48:40.099Z,2.47
2019-05-09T11:51:09.335Z,2.67
2019-05-09T11:53:40.169Z,2.13
2019-05-09T11:56:09.727Z,2.50
2019-05-09T11:58:39.022Z,2.12
2019-05-09T12:01:08.524Z,1.82
2019-05-09T12:03:38.911Z,1.42
2019-05-09T12:06:08.494Z,1.40
2019-05-09T12:08:38.753Z,1.98
2019-05-09T12:11:08.482Z,1.72
2019-05-09T12:13:38.099Z,2.45
2019-05-09T12:16:07.674Z,3.40
2019-05-09T12:18:37.800Z,2.02
2019-05-09T12:21:08.500Z,1.70
2019-05-09T12:23:37.930Z,1.98
2019-05-09T12:26:08.176Z,2.00
2019-05-09T12:28:38.645Z,1.70
2019-05-09T12:31:08.038Z,2.75
2019-05-09T12:33:37.319Z,2.50
2019-05-09T12:36:09.182Z,2.40
2019-05-09T12:38:38.875Z,2.30
2019-05-09T12:41:08.103Z,2.42
2019-05-09T12:43:38.216Z,1.93
2019-05-09T12:46:08.619Z,2.20
2019-05-09T12:48:38.030Z,2.67
2019-05-09T12:51:08.243Z,2.65
2019-05-09T12:53:39.543Z,2.50
2019-05-09T12:56:09.040Z,2.30
2019-05-09T12:58:38.613Z,4.78
2019-05-09T13:01:08.224Z,2.12
2019-05-09T13:03:38.239Z,2.60
2019-05-09T13:06:08.300Z,1.27
2019-05-09T13:13:40.854Z,2.10
2019-05-09T13:19:18.355Z,1.15
2019-05-09T13:21:47.072Z,1.50
2019-05-09T13:24:19.529Z,2.35
2019-05-09T13:26:49.496Z,2.65
2019-05-09T13:29:25.447Z,2.10
2019-05-09T13:31:54.664Z,2.20
2019-05-09T13:34:23.993Z,2.20
2019-05-09T13:36:59.006Z,2.58
2019-05-09T13:39:28.284Z,2.98
2019-05-09T13:41:58.388Z,2.37
2019-05-09T13:44:27.946Z,2.83
2019-05-09T13:46:58.444Z,2.77
2019-05-09T13:49:28.585Z,2.67
2019-05-09T13:52:04.208Z,2.33
2019-05-09T13:54:28.948Z,2.60
2019-05-09T13:57:01.323Z,3.20
2019-05-09T13:59:30.312Z,2.52
2019-05-09T14:02:00.151Z,2.27
2019-05-09T14:04:29.630Z,2.87
2019-05-09T14:06:58.946Z,2.52
2019-05-09T14:09:29.314Z,2.65
2019-05-09T14:11:59.408Z,2.80
2019-05-09T14:14:29.155Z,1.80
2019-05-09T14:16:59.377Z,2.65
2019-05-09T14:19:39.695Z,2.20
2019-05-09T14:22:00.227Z,2.20
2019-05-09T14:24:29.550Z,2.25
2019-05-09T14:26:58.830Z,2.08
2019-05-09T14:29:31.378Z,2.40
2019-05-09T14:31:59.584Z,3.62
2019-05-09T14:34:30.217Z,2.77
2019-05-09T14:36:59.741Z,2.10
2019-05-09T14:39:29.342Z,2.30
2019-05-09T14:41:58.787Z,2.40
2019-05-09T14:44:28.291Z,2.15
2019-05-09T14:46:58.411Z,2.35
2019-05-09T14:49:39.735Z,1.85
2019-05-09T14:51:59.201Z,2.30
2019-05-09T14:54:30.660Z,2.65
2019-05-09T14:57:02.353Z,4.17
2019-05-09T14:59:34.639Z,3.15
2019-05-09T15:02:04.336Z,2.30
2019-05-09T15:04:39.822Z,2.72
2019-05-09T15:07:09.209Z,2.25
2019-05-09T15:09:49.178Z,2.17
2019-05-09T15:14:50.305Z,2.83
2019-05-09T15:17:19.526Z,2.08
2019-05-09T15:19:57.553Z,2.47
2019-05-09T15:22:20.012Z,2.47
2019-05-09T15:24:49.784Z,2.35
2019-05-09T15:27:19.333Z,2.90
2019-05-09T15:29:48.790Z,1.37
2019-05-09T15:32:18.470Z,2.20
2019-05-09T15:34:48.133Z,1.80
2019-05-09T15:37:18.594Z,1.90
2019-05-09T15:39:48.589Z,1.80
2019-05-09T15:42:18.418Z,1.92
2019-05-09T15:44:47.964Z,1.85
2019-05-09T15:47:21.805Z,1.70
2019-05-09T15:49:51.274Z,1.52
2019-05-09T15:52:20.613Z,1.50
2019-05-09T15:54:51.889Z,1.22
2019-05-09T15:57:21.188Z,1.20
2019-05-09T15:59:50.560Z,1.77
2019-05-09T16:02:20.074Z,1.92
2019-05-09T16:04:49.748Z,1.92
2019-05-09T16:07:19.475Z,1.55
2019-05-09T16:09:48.975Z,1.22
2019-05-09T16:12:18.595Z,1.42
2019-05-09T16:14:49.136Z,2.02
2019-05-09T16:17:20.945Z,1.62
2019-05-09T16:19:50.364Z,1.27
2019-05-09T16:22:21.170Z,1.32
2019-05-09T16:24:50.563Z,1.07
2019-05-09T16:27:19.806Z,2.55
2019-05-09T16:29:49.000Z,2.07
2019-05-09T16:32:18.307Z,1.90
2019-05-09T16:34:47.578Z,1.82
2019-05-09T16:37:17.079Z,1.30
2019-05-09T16:39:47.661Z,1.55
2019-05-09T16:42:17.292Z,2.08
2019-05-09T16:44:49.899Z,2.08
2019-05-09T16:47:22.694Z,1.55
2019-05-09T16:49:52.588Z,2.37
2019-05-09T16:52:22.329Z,1.27
2019-05-09T16:54:53.796Z,1.15
2019-05-09T16:57:22.975Z,2.05
2019-05-09T16:59:52.177Z,1.13
2019-05-09T17:02:24.940Z,1.17
2019-05-09T17:04:54.380Z,1.30
2019-05-09T17:07:23.684Z,1.57
2019-05-09T17:09:53.032Z,1.20
2019-05-09T17:12:22.430Z,1.00
2019-05-09T17:14:51.868Z,1.57
2019-05-09T17:17:21.237Z,1.45
2019-05-09T17:19:50.982Z,1.30
2019-05-09T17:22:38.275Z,1.30
2019-05-09T17:25:22.900Z,1.57
2019-05-09T17:29:00.270Z,1.57
2019-05-09T17:31:33.557Z,1.40
2019-05-09T17:34:07.885Z,1.70
2019-05-09T17:36:38.609Z,1.47
2019-05-09T17:39:09.653Z,2.05
2019-05-09T17:41:41.544Z,1.40
2019-05-09T17:44:10.824Z,1.30
2019-05-09T17:46:40.213Z,1.10
2019-05-09T17:49:09.324Z,1.77
2019-05-09T17:51:38.470Z,1.72
2019-05-09T17:54:08.196Z,1.33
2019-05-09T17:56:38.038Z,2.27
2019-05-09T17:59:08.561Z,1.42
2019-05-09T18:01:37.998Z,2.15
2019-05-09T18:04:09.248Z,1.77
2019-05-09T18:06:38.178Z,2.30
2019-05-09T18:09:08.402Z,2.62
2019-05-09T18:11:38.009Z,2.58
2019-05-09T18:14:08.122Z,2.75
2019-05-09T18:16:39.013Z,1.67
2019-05-09T18:19:09.715Z,2.85
2019-05-09T18:21:49.998Z,2.80
2019-05-09T18:24:09.993Z,1.82
2019-05-09T18:26:39.595Z,2.15
2019-05-09T18:29:09.315Z,1.95
2019-05-09T18:32:03.282Z,2.30
2019-05-09T18:34:32.468Z,2.65
2019-05-09T18:37:01.743Z,2.62
2019-05-09T18:39:31.261Z,2.72
2019-05-09T18:42:00.580Z,2.83
2019-05-09T18:44:29.738Z,3.12
2019-05-09T18:46:59.012Z,3.53
2019-05-09T18:49:28.191Z,2.80
2019-05-09T18:52:03.821Z,3.73
2019-05-09T18:54:28.273Z,3.22
2019-05-09T18:56:57.635Z,2.62
2019-05-09T18:59:28.548Z,2.72
2019-05-09T19:01:57.755Z,10.70
2019-05-09T19:04:26.973Z,3.92
2019-05-09T19:06:56.235Z,4.13
2019-05-09T19:09:26.923Z,3.10
2019-05-09T19:11:56.279Z,2.95
2019-05-09T19:14:25.747Z,4.37
2019-05-09T19:17:12.809Z,3.22
2019-05-09T19:19:51.167Z,2.80
2019-05-09T19:22:22.927Z,4.08
2019-05-09T19:24:52.566Z,3.92
2019-05-09T19:27:21.871Z,3.37
2019-05-09T19:29:51.236Z,3.15
2019-05-09T19:32:20.762Z,3.30
2019-05-09T19:34:50.080Z,3.27
2019-05-09T19:37:19.369Z,3.33
2019-05-09T19:39:48.872Z,3.15
2019-05-09T19:42:19.210Z,3.92
2019-05-09T19:44:48.612Z,3.50
2019-05-09T19:47:18.166Z,3.12
2019-05-09T19:49:47.724Z,3.37
2019-05-09T19:52:20.884Z,4.03
2019-05-09T19:54:50.448Z,4.08
2019-05-09T19:57:19.893Z,5.42
2019-05-09T19:59:49.316Z,3.67
2019-05-09T20:02:20.315Z,3.52
2019-05-09T20:04:49.809Z,3.60
2019-05-09T20:07:19.265Z,3.00
2019-05-09T20:09:53.473Z,2.77
2019-05-09T20:12:35.355Z,3.80
2019-05-09T20:15:05.212Z,2.45
2019-05-09T20:17:34.641Z,3.15
2019-05-09T20:20:04.133Z,3.00
2019-05-09T20:22:33.428Z,3.55
2019-05-09T20:25:02.775Z,3.33
2019-05-09T20:27:31.925Z,3.50
2019-05-09T20:30:01.188Z,2.90
2019-05-09T20:32:30.399Z,2.63
2019-05-09T20:35:00.434Z,4.47
2019-05-09T20:39:58.269Z,3.35
2019-05-09T20:42:27.437Z,3.37
2019-05-09T20:44:56.713Z,3.50
2019-05-09T20:47:26.115Z,3.07
2019-05-09T20:49:55.397Z,3.58
2019-05-09T20:52:24.875Z,4.47
2019-05-09T20:54:54.514Z,14.58
2019-05-09T20:57:24.188Z,20.05
2019-05-09T20:59:53.410Z,8.25
2019-05-09T21:02:22.588Z,4.27
2019-05-09T21:04:51.969Z,3.93
2019-05-09T21:07:22.252Z,3.12
2019-05-09T21:09:51.471Z,3.30
2019-05-09T21:12:20.810Z,2.87
2019-05-09T21:14:50.084Z,4.03
2019-05-09T21:17:19.716Z,3.47
2019-05-09T21:19:49.362Z,3.62
2019-05-09T21:22:18.994Z,3.50
2019-05-09T21:24:48.561Z,3.77
2019-05-09T21:27:18.251Z,4.33
2019-05-09T21:29:47.730Z,3.47
2019-05-09T21:32:17.390Z,3.92
2019-05-09T21:34:47.680Z,3.70
2019-05-09T21:37:17.014Z,3.05
2019-05-09T21:39:46.260Z,4.17
2019-05-09T21:42:15.643Z,3.77
2019-05-09T21:44:44.757Z,4.45
2019-05-09T21:47:14.187Z,3.83
2019-05-09T21:49:43.722Z,3.55
2019-05-09T21:52:13.098Z,4.92
2019-05-09T21:54:42.443Z,4.33
2019-05-09T21:57:11.871Z,4.58
2019-05-09T21:59:41.246Z,5.25
2019-05-09T22:02:11.373Z,4.67
2019-05-09T22:07:11.086Z,4.03
2019-05-09T22:09:42.089Z,3.85
2019-05-09T22:12:11.460Z,5.03
2019-05-09T22:14:41.735Z,3.98
2019-05-09T22:17:30.943Z,3.50
2019-05-09T22:20:03.854Z,3.67
2019-05-09T22:22:32.552Z,3.37
2019-05-09T22:25:01.989Z,3.33
2019-05-09T22:27:31.635Z,3.50
2019-05-09T22:30:03.045Z,4.42
2019-05-09T22:32:32.443Z,4.40
2019-05-09T22:35:02.150Z,4.20
2019-05-09T22:37:31.448Z,3.95
2019-05-09T22:40:00.795Z,4.10
2019-05-09T22:42:30.183Z,4.83
2019-05-09T22:44:59.301Z,3.67
2019-05-09T22:47:28.619Z,3.50
2019-05-09T22:49:57.871Z,4.70
2019-05-09T22:52:29.915Z,3.87
2019-05-09T22:54:59.288Z,3.60
2019-05-09T22:57:28.723Z,4.62
2019-05-09T22:59:58.437Z,3.47
2019-05-09T23:02:28.039Z,4.85
2019-05-09T23:04:57.411Z,5.80
2019-05-09T23:07:28.210Z,3.92
2019-05-09T23:09:57.594Z,4.62
2019-05-09T23:12:27.094Z,5.08
2019-05-09T23:15:04.704Z,3.95
2019-05-09T23:17:34.323Z,3.92
2019-05-09T23:20:05.584Z,5.20
2019-05-09T23:22:35.035Z,4.85
2019-05-09T23:25:05.126Z,4.20
2019-05-09T23:30:03.403Z,4.62
2019-05-09T23:32:39.815Z,4.65
2019-05-09T23:35:09.703Z,5.00
2019-05-09T23:37:39.621Z,6.00
2019-05-09T23:40:09.239Z,6.87
2019-05-09T23:42:38.687Z,5.55
2019-05-09T23:45:08.467Z,6.80
2019-05-09T23:47:39.130Z,5.83
2019-05-09T23:50:08.887Z,5.15
2019-05-09T23:52:38.212Z,5.45
2019-05-09T23:55:25.854Z,6.65
2019-05-09T23:58:13.260Z,4.85
